createdAt,value
2019-06-07T00:01:47.566Z,14.20
2019-06-07T00:04:16.855Z,14.10
2019-06-07T00:06:46.182Z,14.00
2019-06-07T00:09:18.652Z,13.90
2019-06-07T00:11:47.020Z,13.80
2019-06-07T00:14:18.237Z,13.80
2019-06-07T00:16:47.563Z,13.80
2019-06-07T00:19:18.833Z,13.80
2019-06-07T00:24:21.534Z,13.80
2019-06-07T00:26:58.210Z,13.80
2019-06-07T00:29:22.007Z,13.80
2019-06-07T00:31:51.470Z,13.70
2019-06-07T00:34:22.985Z,13.70
2019-06-07T00:36:52.058Z,13.70
2019-06-07T00:39:25.084Z,13.70
2019-06-07T00:41:52.372Z,13.60
2019-06-07T00:44:23.458Z,13.60
2019-06-07T00:46:53.045Z,13.60
2019-06-07T00:49:39.989Z,13.60
2019-06-07T00:51:53.811Z,13.50
2019-06-07T00:54:24.827Z,13.50
2019-06-07T00:56:54.914Z,13.40
2019-06-07T00:59:29.274Z,13.40
2019-06-07T01:01:55.818Z,13.30
2019-06-07T01:04:26.048Z,13.40
2019-06-07T01:06:56.164Z,13.30
2019-06-07T01:09:25.697Z,13.20
2019-06-07T01:11:55.170Z,13.20
2019-06-07T01:14:27.779Z,13.20
2019-06-07T01:17:01.471Z,13.10
2019-06-07T01:19:27.875Z,13.10
2019-06-07T01:21:57.518Z,13.00
2019-06-07T01:24:28.046Z,12.90
2019-06-07T01:26:57.520Z,12.90
2019-06-07T01:29:30.307Z,12.80
2019-06-07T01:31:57.831Z,12.70
2019-06-07T01:34:28.674Z,12.60
2019-06-07T01:36:58.313Z,12.60
2019-06-07T01:39:29.737Z,12.60
2019-06-07T01:41:58.633Z,12.50
2019-06-07T01:44:30.343Z,12.50
2019-06-07T01:46:58.930Z,12.50
2019-06-07T01:49:29.766Z,12.50
2019-06-07T01:51:59.506Z,12.50
2019-06-07T01:56:59.801Z,12.50
2019-06-07T01:59:31.588Z,12.50
2019-06-07T02:02:00.395Z,12.50
2019-06-07T02:04:32.789Z,12.50
2019-06-07T02:07:00.737Z,12.50
2019-06-07T02:09:31.922Z,12.50
2019-06-07T02:12:01.444Z,12.50
2019-06-07T02:14:33.476Z,12.40
2019-06-07T02:17:02.658Z,12.40
2019-06-07T02:19:33.376Z,12.40
2019-06-07T02:22:03.125Z,12.40
2019-06-07T02:24:35.589Z,12.40
2019-06-07T02:27:03.949Z,12.30
2019-06-07T02:29:33.830Z,12.30
2019-06-07T02:32:03.366Z,12.30
2019-06-07T02:34:38.501Z,12.20
2019-06-07T02:37:04.055Z,12.20
2019-06-07T02:39:38.103Z,12.30
2019-06-07T02:42:05.317Z,12.30
2019-06-07T02:44:39.170Z,12.30
2019-06-07T02:47:05.600Z,12.30
2019-06-07T02:49:40.865Z,12.30
2019-06-07T02:52:06.007Z,12.20
2019-06-07T02:54:39.774Z,12.20
2019-06-07T02:57:06.505Z,12.20
2019-06-07T03:00:04.430Z,12.10
2019-06-07T03:02:07.068Z,12.10
2019-06-07T03:04:41.785Z,12.00
2019-06-07T03:07:08.344Z,12.00
2019-06-07T03:09:39.990Z,12.00
2019-06-07T03:12:11.235Z,11.80
2019-06-07T03:14:41.684Z,11.80
2019-06-07T03:17:15.940Z,11.80
2019-06-07T03:19:48.546Z,11.80
2019-06-07T03:22:17.914Z,11.80
2019-06-07T03:24:48.769Z,11.80
2019-06-07T03:27:41.515Z,11.90
2019-06-07T03:29:50.245Z,12.00
2019-06-07T03:32:19.553Z,11.90
2019-06-07T03:34:48.843Z,12.00
2019-06-07T03:37:18.146Z,12.10
2019-06-07T03:39:47.452Z,12.20
2019-06-07T03:42:16.768Z,12.40
2019-06-07T03:44:46.063Z,12.40
2019-06-07T03:47:15.384Z,12.60
2019-06-07T03:49:44.700Z,12.60
2019-06-07T03:52:13.992Z,12.60
2019-06-07T03:54:43.567Z,12.70
2019-06-07T03:57:12.860Z,12.70
2019-06-07T03:59:42.245Z,12.70
2019-06-07T04:02:11.580Z,12.80
2019-06-07T04:04:40.885Z,12.80
2019-06-07T04:07:10.437Z,12.80
2019-06-07T04:09:42.832Z,12.60
2019-06-07T04:12:10.729Z,12.60
2019-06-07T04:14:42.542Z,12.50
2019-06-07T04:17:11.451Z,12.40
2019-06-07T04:19:43.313Z,12.50
2019-06-07T04:22:12.022Z,12.40
2019-06-07T04:24:42.077Z,12.40
2019-06-07T04:27:11.517Z,12.30
2019-06-07T04:30:03.136Z,12.20
2019-06-07T04:32:11.828Z,12.10
2019-06-07T04:34:43.031Z,12.10
2019-06-07T04:37:13.967Z,11.80
2019-06-07T04:39:45.471Z,11.70
2019-06-07T04:42:17.227Z,11.50
2019-06-07T04:44:48.386Z,11.40
2019-06-07T04:47:19.639Z,11.20
2019-06-07T04:49:49.718Z,11.10
2019-06-07T04:52:19.012Z,11.00
2019-06-07T04:54:48.330Z,11.10
2019-06-07T04:57:17.645Z,11.10
2019-06-07T05:00:11.858Z,11.10
2019-06-07T05:02:18.447Z,11.10
2019-06-07T05:04:48.056Z,11.10
2019-06-07T05:07:17.629Z,11.10
2019-06-07T05:09:47.006Z,11.20
2019-06-07T05:12:16.304Z,11.20
2019-06-07T05:14:45.693Z,11.30
2019-06-07T05:17:15.053Z,11.30
2019-06-07T05:19:44.826Z,11.30
2019-06-07T05:22:14.331Z,11.30
2019-06-07T05:24:43.904Z,11.30
2019-06-07T05:27:13.512Z,11.20
2019-06-07T05:29:45.953Z,11.30
2019-06-07T05:32:14.964Z,11.20
2019-06-07T05:34:47.400Z,11.30
2019-06-07T05:37:15.671Z,11.40
2019-06-07T05:39:46.457Z,11.30
2019-06-07T05:42:16.244Z,11.20
2019-06-07T05:44:45.968Z,11.20
2019-06-07T05:47:15.466Z,11.20
2019-06-07T05:49:47.155Z,11.20
2019-06-07T05:52:15.818Z,11.30
2019-06-07T05:54:46.826Z,11.30
2019-06-07T05:57:16.116Z,11.40
2019-06-07T05:59:47.565Z,11.50
2019-06-07T06:02:22.507Z,11.60
2019-06-07T06:04:49.301Z,11.60
2019-06-07T06:07:18.908Z,11.60
2019-06-07T06:09:48.199Z,11.50
2019-06-07T06:12:34.089Z,11.50
2019-06-07T06:14:48.502Z,11.50
2019-06-07T06:17:17.820Z,11.70
2019-06-07T06:19:50.385Z,11.70
2019-06-07T06:22:18.118Z,11.80
2019-06-07T06:25:28.999Z,11.90
2019-06-07T06:28:02.733Z,12.00
2019-06-07T06:29:52.412Z,12.30
2019-06-07T06:34:53.858Z,12.90
2019-06-07T06:37:23.567Z,13.10
2019-06-07T06:39:52.886Z,13.20
2019-06-07T06:42:22.164Z,13.30
2019-06-07T06:44:54.073Z,13.40
2019-06-07T06:47:22.715Z,13.50
2019-06-07T06:49:54.256Z,13.60
2019-06-07T06:52:23.012Z,13.60
2019-06-07T06:55:00.104Z,13.70
2019-06-07T06:57:23.384Z,13.80
2019-06-07T06:59:52.909Z,13.60
2019-06-07T07:02:22.372Z,13.60
2019-06-07T07:04:53.423Z,13.60
2019-06-07T07:07:23.941Z,13.50
2019-06-07T07:09:59.086Z,13.50
2019-06-07T07:12:24.303Z,13.60
2019-06-07T07:14:56.063Z,13.60
2019-06-07T07:17:46.881Z,13.60
2019-06-07T07:19:55.899Z,13.60
2019-06-07T07:22:25.244Z,13.60
2019-06-07T07:24:54.991Z,13.60
2019-06-07T07:27:24.416Z,13.70
2019-06-07T07:30:34.312Z,13.70
2019-06-07T07:32:24.745Z,13.80
2019-06-07T07:35:00.024Z,13.80
2019-06-07T07:37:25.031Z,13.90
2019-06-07T07:40:01.664Z,13.80
2019-06-07T07:42:25.352Z,13.80
2019-06-07T07:44:56.508Z,13.80
2019-06-07T07:47:25.957Z,13.80
2019-06-07T07:49:58.506Z,13.90
2019-06-07T07:52:26.252Z,14.10
2019-06-07T07:54:56.630Z,14.10
2019-06-07T07:57:26.823Z,14.10
2019-06-07T08:00:17.748Z,14.10
2019-06-07T08:02:27.111Z,14.10
2019-06-07T08:07:28.127Z,14.30
2019-06-07T08:10:02.907Z,14.40
2019-06-07T08:12:28.635Z,14.60
2019-06-07T08:15:02.844Z,14.70
2019-06-07T08:17:29.241Z,14.90
2019-06-07T08:20:17.938Z,15.00
2019-06-07T08:22:47.658Z,15.10
2019-06-07T08:25:17.348Z,15.20
2019-06-07T08:27:47.059Z,15.40
2019-06-07T08:30:46.996Z,15.50
2019-06-07T08:32:52.630Z,15.60
2019-06-07T08:36:02.971Z,15.70
2019-06-07T08:40:22.749Z,16.10
2019-06-07T08:43:10.969Z,16.40
2019-06-07T08:45:23.126Z,16.50
2019-06-07T08:47:58.940Z,17.00
2019-06-07T08:50:25.236Z,17.30
2019-06-07T08:53:00.007Z,17.50
2019-06-07T08:55:25.523Z,17.60
2019-06-07T08:58:02.277Z,17.70
2019-06-07T09:03:00.951Z,17.90
2019-06-07T09:05:28.374Z,18.10
2019-06-07T09:08:21.906Z,18.40
2019-06-07T09:10:28.815Z,18.60
2019-06-07T09:13:03.853Z,18.90
2019-06-07T09:15:29.332Z,19.30
2019-06-07T09:20:44.904Z,19.50
2019-06-07T09:23:17.020Z,19.60
2019-06-07T09:25:57.577Z,19.70
2019-06-07T09:28:19.990Z,19.80
2019-06-07T09:30:47.435Z,19.80
2019-06-07T09:33:16.742Z,19.80
2019-06-07T09:35:46.268Z,20.00
2019-06-07T09:38:24.982Z,20.20
2019-06-07T09:40:46.538Z,20.40
2019-06-07T09:44:00.767Z,20.60
2019-06-07T09:45:46.821Z,20.80
2019-06-07T09:48:47.589Z,21.00
2019-06-07T09:50:47.401Z,21.30
2019-06-07T09:53:22.779Z,21.50
2019-06-07T09:55:48.028Z,21.80
2019-06-07T09:58:50.056Z,21.80
2019-06-07T10:00:48.343Z,21.90
2019-06-07T10:03:21.972Z,21.90
2019-06-07T10:05:48.619Z,21.90
2019-06-07T10:09:31.690Z,22.00
2019-06-07T10:10:49.144Z,22.30
2019-06-07T10:13:18.437Z,22.50
2019-06-07T10:15:47.709Z,22.80
2019-06-07T10:18:17.286Z,23.10
2019-06-07T10:20:46.560Z,23.30
2019-06-07T10:23:15.861Z,23.60
2019-06-07T10:25:45.165Z,23.60
2019-06-07T10:28:14.472Z,23.60
2019-06-07T10:30:43.776Z,23.70
2019-06-07T10:33:13.071Z,23.80
2019-06-07T10:35:42.602Z,23.80
2019-06-07T10:38:11.899Z,23.80
2019-06-07T10:40:41.348Z,23.80
2019-06-07T10:43:14.317Z,24.00
2019-06-07T10:45:42.120Z,24.00
2019-06-07T10:48:11.770Z,23.90
2019-06-07T10:50:41.180Z,23.80
2019-06-07T10:53:10.899Z,24.00
2019-06-07T10:55:40.230Z,24.30
2019-06-07T10:58:09.518Z,24.30
2019-06-07T11:00:38.858Z,24.50
2019-06-07T11:03:08.221Z,24.40
2019-06-07T11:05:39.112Z,24.50
2019-06-07T11:08:10.080Z,24.70
2019-06-07T11:10:39.680Z,24.90
2019-06-07T11:13:10.404Z,24.90
2019-06-07T11:15:40.108Z,24.90
2019-06-07T11:18:10.262Z,25.00
2019-06-07T11:20:40.046Z,25.20
2019-06-07T11:23:10.150Z,25.40
2019-06-07T11:25:39.594Z,25.40
2019-06-07T11:28:10.399Z,25.20
2019-06-07T11:30:39.944Z,25.50
2019-06-07T11:33:11.858Z,25.60
2019-06-07T11:35:40.764Z,25.50
2019-06-07T11:38:10.555Z,25.80
2019-06-07T11:40:39.919Z,26.10
2019-06-07T11:43:09.194Z,26.30
2019-06-07T11:45:38.480Z,26.60
2019-06-07T11:48:09.015Z,26.70
2019-06-07T11:50:38.716Z,26.80
2019-06-07T11:53:08.595Z,27.00
2019-06-07T11:55:37.971Z,27.20
2019-06-07T11:58:11.127Z,27.20
2019-06-07T12:00:38.248Z,27.30
2019-06-07T12:03:07.541Z,27.30
2019-06-07T12:05:36.817Z,27.30
2019-06-07T12:08:06.288Z,27.40
2019-06-07T12:10:42.376Z,27.50
2019-06-07T12:13:06.680Z,27.80
2019-06-07T12:15:35.946Z,28.20
2019-06-07T12:18:05.301Z,28.20
2019-06-07T12:20:34.633Z,28.20
2019-06-07T12:23:03.987Z,28.30
2019-06-07T12:25:33.276Z,28.30
2019-06-07T12:28:02.568Z,28.50
2019-06-07T12:30:31.848Z,28.60
2019-06-07T12:33:01.151Z,28.80
2019-06-07T12:35:30.439Z,28.90
2019-06-07T12:37:59.732Z,28.90
2019-06-07T12:40:32.288Z,28.80
2019-06-07T12:43:00.289Z,28.70
2019-06-07T12:45:44.261Z,28.60
2019-06-07T12:48:00.576Z,28.50
2019-06-07T12:50:42.552Z,28.70
2019-06-07T12:53:00.851Z,28.90
2019-06-07T12:55:30.119Z,29.30
2019-06-07T12:57:59.425Z,29.30
2019-06-07T13:00:29.171Z,29.00
2019-06-07T13:02:58.456Z,29.10
2019-06-07T13:05:28.033Z,29.50
2019-06-07T13:07:57.400Z,29.60
2019-06-07T13:10:26.712Z,29.50
2019-06-07T13:12:55.993Z,29.60
2019-06-07T13:15:26.091Z,29.70
2019-06-07T13:17:55.435Z,30.00
2019-06-07T13:20:24.896Z,30.20
2019-06-07T13:22:54.473Z,30.30
2019-06-07T13:25:41.092Z,30.30
2019-06-07T13:27:55.472Z,30.30
2019-06-07T13:30:25.557Z,30.10
2019-06-07T13:32:55.025Z,30.00
2019-06-07T13:35:25.352Z,30.20
2019-06-07T13:37:54.941Z,30.30
2019-06-07T13:40:25.210Z,30.10
2019-06-07T13:42:54.614Z,29.90
2019-06-07T13:45:24.303Z,29.90
2019-06-07T13:47:53.812Z,30.10
2019-06-07T13:50:24.133Z,30.10
2019-06-07T13:52:53.535Z,30.20
2019-06-07T13:55:23.961Z,30.30
2019-06-07T13:57:53.389Z,30.10
2019-06-07T14:00:23.143Z,30.40
2019-06-07T14:02:53.721Z,30.50
2019-06-07T14:05:23.169Z,30.20
2019-06-07T14:07:52.574Z,30.10
2019-06-07T14:10:21.877Z,30.10
2019-06-07T14:12:51.623Z,29.80
2019-06-07T14:15:22.342Z,29.60
2019-06-07T14:17:51.812Z,29.50
2019-06-07T14:20:26.785Z,29.70
2019-06-07T14:22:54.509Z,30.00
2019-06-07T14:25:25.136Z,30.20
2019-06-07T14:27:54.475Z,30.30
2019-06-07T14:30:24.089Z,30.60
2019-06-07T14:32:53.537Z,30.70
2019-06-07T14:35:22.896Z,30.80
2019-06-07T14:37:52.341Z,30.90
2019-06-07T14:40:23.130Z,31.00
2019-06-07T14:42:52.608Z,30.90
2019-06-07T14:45:23.537Z,31.10
2019-06-07T14:47:52.950Z,31.30
2019-06-07T14:50:22.467Z,31.50
2019-06-07T14:52:51.760Z,31.70
2019-06-07T14:55:21.102Z,31.70
2019-06-07T14:57:50.428Z,31.40
2019-06-07T15:00:20.202Z,31.30
2019-06-07T15:02:49.555Z,31.60
2019-06-07T15:05:21.913Z,31.60
2019-06-07T15:07:51.276Z,31.20
2019-06-07T15:10:20.559Z,30.80
2019-06-07T15:12:49.848Z,30.70
2019-06-07T15:15:19.204Z,30.70
2019-06-07T15:17:48.536Z,30.60
2019-06-07T15:20:17.889Z,30.70
2019-06-07T15:22:47.163Z,30.60
2019-06-07T15:25:16.464Z,30.20
2019-06-07T15:27:45.732Z,29.90
2019-06-07T15:30:15.284Z,29.50
2019-06-07T15:32:44.568Z,29.20
2019-06-07T15:35:14.196Z,28.80
2019-06-07T15:37:43.472Z,28.50
2019-06-07T15:40:13.107Z,28.20
2019-06-07T15:42:52.084Z,28.10
2019-06-07T15:45:13.534Z,27.90
2019-06-07T15:47:42.824Z,27.70
2019-06-07T15:50:12.546Z,27.50
2019-06-07T15:52:43.259Z,27.30
2019-06-07T15:55:12.879Z,27.10
2019-06-07T15:57:42.526Z,26.90
2019-06-07T16:00:17.936Z,26.90
2019-06-07T16:02:47.481Z,26.80
2019-06-07T16:05:17.109Z,26.60
2019-06-07T16:07:46.403Z,26.50
2019-06-07T16:10:15.942Z,26.50
2019-06-07T16:12:59.734Z,26.50
2019-06-07T16:15:16.765Z,26.50
2019-06-07T16:17:46.052Z,26.50
2019-06-07T16:20:15.866Z,26.50
2019-06-07T16:22:45.161Z,26.50
2019-06-07T16:25:15.880Z,26.80
2019-06-07T16:27:45.316Z,26.90
2019-06-07T16:30:15.086Z,27.00
2019-06-07T16:32:46.226Z,27.10
2019-06-07T16:35:16.101Z,27.10
2019-06-07T16:37:49.630Z,27.00
2019-06-07T16:40:17.095Z,27.00
2019-06-07T16:42:46.376Z,26.90
2019-06-07T16:45:15.829Z,26.90
2019-06-07T16:47:47.536Z,26.90
2019-06-07T16:50:16.589Z,26.80
2019-06-07T16:52:46.562Z,26.70
2019-06-07T16:55:16.924Z,26.60
2019-06-07T16:57:46.361Z,26.30
2019-06-07T17:00:16.025Z,25.90
2019-06-07T17:02:46.985Z,25.60
2019-06-07T17:05:16.612Z,25.30
2019-06-07T17:07:46.891Z,25.00
2019-06-07T17:10:17.426Z,24.90
2019-06-07T17:12:47.010Z,24.70
2019-06-07T17:15:18.446Z,24.70
2019-06-07T17:17:49.135Z,24.60
2019-06-07T17:20:19.587Z,24.50
2019-06-07T17:22:49.750Z,23.80
2019-06-07T17:25:19.217Z,23.10
2019-06-07T17:27:49.981Z,22.50
2019-06-07T17:30:19.707Z,21.90
2019-06-07T17:32:58.182Z,21.40
2019-06-07T17:35:20.094Z,21.10
2019-06-07T17:37:50.168Z,20.70
2019-06-07T17:40:20.603Z,20.10
2019-06-07T17:42:51.029Z,19.40
2019-06-07T17:45:20.762Z,18.90
2019-06-07T17:47:51.960Z,18.50
2019-06-07T17:50:21.579Z,18.10
2019-06-07T17:52:52.043Z,17.70
2019-06-07T17:55:21.711Z,17.00
2019-06-07T17:57:51.040Z,16.50
2019-06-07T18:00:29.344Z,15.90
2019-06-07T18:02:53.029Z,15.50
2019-06-07T18:05:22.525Z,15.40
2019-06-07T18:07:53.887Z,15.20
2019-06-07T18:10:37.919Z,15.00
2019-06-07T18:13:07.287Z,14.90
2019-06-07T18:15:42.354Z,14.80
2019-06-07T18:18:12.107Z,14.70
2019-06-07T18:20:41.979Z,14.70
2019-06-07T18:23:12.131Z,14.70
2019-06-07T18:25:41.712Z,14.60
2019-06-07T18:28:11.302Z,14.50
2019-06-07T18:30:40.816Z,14.40
2019-06-07T18:33:10.116Z,14.40
2019-06-07T18:35:39.395Z,14.40
2019-06-07T18:38:10.870Z,14.30
2019-06-07T18:40:40.338Z,14.20
2019-06-07T18:43:09.638Z,14.20
2019-06-07T18:45:38.916Z,14.10
2019-06-07T18:48:08.266Z,14.10
2019-06-07T18:50:37.585Z,14.10
2019-06-07T18:53:07.189Z,14.00
2019-06-07T18:55:36.707Z,14.10
2019-06-07T18:58:05.991Z,14.10
2019-06-07T19:00:36.695Z,14.10
2019-06-07T19:03:06.058Z,14.00
2019-06-07T19:05:35.569Z,13.90
2019-06-07T19:08:04.919Z,14.00
2019-06-07T19:10:34.466Z,14.00
2019-06-07T19:13:03.757Z,14.00
2019-06-07T19:15:33.324Z,14.00
2019-06-07T19:18:02.772Z,14.00
2019-06-07T19:20:32.464Z,14.00
2019-06-07T19:23:01.801Z,14.00
2019-06-07T19:25:31.105Z,14.10
2019-06-07T19:28:01.044Z,14.10
2019-06-07T19:30:30.469Z,14.10
2019-06-07T19:33:01.377Z,14.30
2019-06-07T19:35:31.132Z,14.30
2019-06-07T19:38:02.054Z,14.40
2019-06-07T19:40:31.787Z,14.40
2019-06-07T19:43:03.728Z,14.40
2019-06-07T19:45:32.106Z,14.40
2019-06-07T19:48:02.682Z,14.40
2019-06-07T19:50:32.307Z,14.30
2019-06-07T19:53:01.658Z,14.30
2019-06-07T19:55:31.054Z,14.30
2019-06-07T19:58:01.644Z,14.30
2019-06-07T20:00:31.118Z,14.20
2019-06-07T20:03:00.431Z,14.20
2019-06-07T20:05:29.839Z,14.20
2019-06-07T20:08:00.505Z,14.20
2019-06-07T20:10:29.893Z,14.20
2019-06-07T20:12:59.176Z,14.20
2019-06-07T20:15:29.714Z,14.20
2019-06-07T20:17:59.311Z,14.20
2019-06-07T20:20:30.105Z,14.30
2019-06-07T20:23:00.818Z,14.40
2019-06-07T20:25:30.376Z,14.50
2019-06-07T20:28:00.081Z,14.50
2019-06-07T20:30:30.538Z,14.60
2019-06-07T20:32:59.957Z,14.70
2019-06-07T20:35:30.706Z,14.70
2019-06-07T20:38:01.062Z,14.80
2019-06-07T20:40:30.513Z,14.90
2019-06-07T20:42:59.812Z,14.90
2019-06-07T20:45:33.481Z,15.00
2019-06-07T20:48:01.956Z,14.80
2019-06-07T20:50:31.409Z,14.70
2019-06-07T20:53:01.313Z,14.70
2019-06-07T20:55:31.749Z,14.70
2019-06-07T20:58:01.035Z,14.70
2019-06-07T21:00:30.321Z,14.80
2019-06-07T21:03:01.150Z,14.90
2019-06-07T21:05:30.619Z,14.80
2019-06-07T21:08:01.634Z,14.80
2019-06-07T21:10:31.395Z,14.80
2019-06-07T21:13:01.870Z,14.80
2019-06-07T21:15:31.299Z,14.90
2019-06-07T21:18:00.602Z,14.90
2019-06-07T21:20:30.141Z,15.00
2019-06-07T21:23:00.688Z,15.00
2019-06-07T21:25:30.373Z,15.00
2019-06-07T21:28:00.846Z,15.00
2019-06-07T21:30:30.342Z,15.00
2019-06-07T21:32:59.616Z,15.00
2019-06-07T21:35:28.927Z,15.10
2019-06-07T21:37:58.263Z,15.20
2019-06-07T21:40:27.555Z,15.30
2019-06-07T21:42:56.856Z,15.30
2019-06-07T21:45:26.220Z,15.30
2019-06-07T21:47:55.499Z,15.20
2019-06-07T21:50:24.804Z,15.20
2019-06-07T21:52:54.152Z,15.20
2019-06-07T21:55:23.456Z,15.10
2019-06-07T21:57:52.844Z,15.10
2019-06-07T22:00:29.534Z,15.10
2019-06-07T22:02:59.860Z,15.30
2019-06-07T22:05:29.155Z,15.30
2019-06-07T22:07:58.456Z,15.30
2019-06-07T22:10:27.819Z,15.30
2019-06-07T22:12:57.449Z,15.30
2019-06-07T22:15:33.329Z,15.30
2019-06-07T22:17:57.852Z,15.20
2019-06-07T22:20:27.141Z,15.20
2019-06-07T22:22:56.775Z,15.10
2019-06-07T22:25:26.123Z,15.00
2019-06-07T22:27:55.415Z,15.00
2019-06-07T22:30:24.700Z,15.00
2019-06-07T22:32:54.283Z,14.90
2019-06-07T22:35:23.574Z,14.80
2019-06-07T22:37:52.867Z,14.80
2019-06-07T22:40:22.140Z,14.60
2019-06-07T22:42:51.434Z,14.50
2019-06-07T22:45:20.808Z,14.60
2019-06-07T22:47:50.106Z,14.60
2019-06-07T22:50:19.456Z,14.70
2019-06-07T22:52:48.751Z,14.80
2019-06-07T22:55:18.230Z,15.00
2019-06-07T22:57:55.411Z,15.00
2019-06-07T23:00:26.336Z,15.00
2019-06-07T23:02:55.868Z,15.00
2019-06-07T23:05:25.263Z,15.00
2019-06-07T23:07:54.618Z,14.90
2019-06-07T23:10:23.909Z,14.90
2019-06-07T23:12:53.202Z,15.00
2019-06-07T23:15:23.264Z,15.10
2019-06-07T23:17:52.559Z,15.10
2019-06-07T23:20:22.170Z,15.00
2019-06-07T23:22:51.452Z,15.00
2019-06-07T23:25:23.972Z,15.00
2019-06-07T23:27:51.734Z,14.90
2019-06-07T23:30:22.267Z,14.90
2019-06-07T23:32:51.873Z,14.90
2019-06-07T23:35:21.306Z,14.80
2019-06-07T23:37:50.716Z,14.70
2019-06-07T23:40:21.583Z,14.70
2019-06-07T23:42:51.089Z,14.70
2019-06-07T23:45:21.713Z,14.60
2019-06-07T23:47:51.124Z,14.50
2019-06-07T23:50:21.770Z,14.60
2019-06-07T23:52:51.283Z,14.60
2019-06-07T23:55:20.584Z,14.60
2019-06-07T23:57:49.873Z,14.60
